Flight Track Log - Related Links

Times and Time Zones

All times are in EDT time to prevent confusion due to time zone crossing. See the ASH3783 flight status page for this flight to view local times or setup timezone preferences in your user account.

Time Position Orientation Groundspeed Altitude Reporting Facility
EDT Latitude Longitude Course Direction KTS MPH feet Rate Location/Type
06:44PM 41.9000 -87.9333 170° South 198 228 4,500  Level Chicago TRACON
06:45PM 41.8708 -87.9386 188° South 213 245 4,900 1,085 Climbing Chicago Center
06:46PM 41.6839 -87.5638 159° South  Level Estimated
06:46PM 41.7983 -87.8956 156° South 264 304 6,200  Level Chicago Center
06:47PM 41.5852 -87.4500 153° Southeast  Level Estimated
06:47PM 41.7319 -87.8375 147° Southeast 287 330 8,900  Level Chicago Center
06:48PM 41.4863 -87.3365 166° South  Level Estimated
06:48PM 41.6542 -87.7711 147° Southeast 303 349 11,900  Level Chicago Center
06:49PM 41.3874 -87.2234 166° South  Level Estimated
06:49PM 41.5717 -87.6997 147° Southeast 339 390 13,100  Level Chicago Center
06:53PM 41.1469 -87.5217 150° Southeast 417 480 20,800 1,721 Climbing Chicago Center
06:55PM 40.9081 -87.4547 166° South 440 506 23,800 1,452 Climbing Chicago Center
06:57PM 40.6311 -87.3844 169° South 460 529 26,800 1,323 Climbing Chicago Center
06:58PM 40.5462 -87.3549 173° South  Level FlightAware Approximate
06:58PM 40.5028 -87.3508 169° South 466 536 27,900  Level Chicago Center
06:59PM 40.4246 -87.2976 150° Southeast  Level FlightAware Approximate
07:00PM 40.3975 -87.2833 154° Southeast 479 551 28,700  Level Chicago Center
07:02PM 40.2031 -86.9883 131° Southeast 488 562 30,800 871 Climbing Chicago Center
07:03PM 40.1214 -86.8414 126° Southeast 497 572 31,400 760 Climbing Chicago Center
07:04PM 40.0042 -86.6331 126° Southeast 501 577 32,700 651 Climbing Indianapolis Center
07:06PM 39.8156 -86.2994 126° Southeast 514 592 33,700 645 Climbing Indianapolis Center
07:07PM 39.7297 -86.1486 126° Southeast 516 594 34,700 894 Climbing Indianapolis Center
07:09PM 39.5906 -85.9058 127° Southeast 518 596 36,100 783 Climbing Chicago Center
07:10PM 39.5083 -85.7633 127° Southeast 501 577 36,800 435 Climbing Chicago Center
07:11PM 39.4236 -85.6164 127° Southeast 505 581 37,000 81 Climbing Chicago Center
07:12PM 39.3014 -85.4081 127° Southeast 517 595 37,000  Level Indianapolis Center
07:13PM 39.2117 -85.2550 127° Southeast 530 610 37,000  Level Indianapolis Center
07:14PM 39.1047 -85.0742 127° Southeast 533 613 37,000  Level Indianapolis Center
07:15PM 39.0167 -84.9244 127° Southeast 532 612 37,000  Level Indianapolis Center
07:18PM 38.8411 -84.6311 127° Southeast 521 600 37,000  Level Indianapolis Center
07:19PM 38.7497 -84.4792 128° Southeast 516 594 37,000  Level Indianapolis Center
07:20PM 38.6633 -84.3364 128° Southeast 515 593 37,000  Level Indianapolis Center
07:21PM 38.5542 -84.2164 139° Southeast 512 589 37,000  Level Indianapolis Center
07:22PM 38.4264 -84.0825 141° Southeast 511 588 37,000 -435 Level Indianapolis Center
07:23PM 38.3133 -83.9706 142° Southeast 511 588 36,100 -645 Descending Indianapolis Center
07:25PM 38.0806 -83.7356 141° Southeast 533 613 35,000 -419 Descending Indianapolis Center
07:26PM 37.9675 -83.6206 141° Southeast 524 603 34,800 -677 Descending Indianapolis Center
07:27PM 37.8561 -83.5125 143° Southeast 510 587 33,600 -871 Descending Indianapolis Center
07:28PM 37.7297 -83.3853 141° Southeast 501 577 33,000 -290 Descending Indianapolis Center
07:29PM 37.6167 -83.2742 142° Southeast 508 585 33,000  Level Indianapolis Center
07:30PM 37.5017 -83.1597 142° Southeast 520 598 33,000 -532 Level Indianapolis Center
07:31PM 37.3864 -83.0461 142° Southeast 523 602 31,900 -1,113 Descending Indianapolis Center
07:32PM 37.2769 -82.9383 142° Southeast 507 583 30,700 -1,161 Descending Indianapolis Center
07:33PM 37.1708 -82.8347 142° Southeast 487 560 29,500 -829 Descending Indianapolis Center
07:34PM 37.0628 -82.7289 142° Southeast 484 557 29,000 -244 Descending Indianapolis Center
07:35PM 36.9553 -82.6256 142° Southeast 482 555 29,000  Level Indianapolis Center
07:36PM 36.8325 -82.5069 142° Southeast 474 545 29,000  Level Indianapolis Center
07:37PM 36.7194 -82.4156 147° Southeast 480 552 29,000  Level Indianapolis Center
07:38PM 36.6181 -82.3419 150° Southeast 494 568 29,000  Level Atlanta Center
07:39PM 36.4978 -82.2517 149° Southeast 504 580 29,000 -700 Level Atlanta Center
07:40PM 36.3819 -82.1639 149° Southeast 498 573 27,600 -1,950 Descending Atlanta Center
07:41PM 36.2678 -82.0792 149° Southeast 492 566 25,100 -2,450 Descending Atlanta Center
07:42PM 36.1581 -81.9969 149° Southeast 477 549 22,700 -2,450 Descending Atlanta Center
07:43PM 36.0503 -81.9147 148° Southeast 467 537 20,200 -2,450 Descending Atlanta Center
07:44PM 35.9383 -81.8331 149° Southeast 467 537 17,800 -2,350 Descending Atlanta Center
07:45PM 35.8347 -81.7564 149° Southeast 455 524 15,500 -2,400 Descending Atlanta Center
07:45PM 35.7944 -81.7269 149° Southeast 421 484 14,600 -2,100 Descending Atlanta Center
07:46PM 35.7375 -81.6875 151° Southeast 430 495 13,400 -1,560 Descending Atlanta Center
07:47PM 35.6422 -81.6136 148° Southeast 411 473 12,000 -1,120 Descending Atlanta Center
07:47PM 35.6103 -81.5892 148° Southeast 400 460 12,000  Level Atlanta Center
07:48PM 35.5611 -81.5242 133° Southeast 399 459 12,000  Level Atlanta Center
07:48PM 35.5350 -81.4789 125° Southeast 399 459 12,000 94 Level Atlanta Center
07:49PM 35.4811 -81.3967 129° Southeast 400 460 12,100 -103 Climbing Atlanta Center
07:50PM 35.4056 -81.2844 130° Southeast 395 455 11,800 -517 Descending Atlanta Center
07:51PM 35.3517 -81.2072 131° Southeast 380 437 11,100 -1,000 Descending Atlanta Center
07:51PM 35.3408 -81.1872 124° Southeast 338 389 10,800 -1,300 Descending Atlanta Center
07:52PM 35.2956 -81.1175 128° Southeast 357 411 9,800 -931 Descending Atlanta Center
07:53PM 35.2192 -81.0744 155° Southeast 253 291 9,000 -1,021 Descending Atlanta Center
07:55PM 35.0897 -81.0614 175° South 235 270 6,600 -1,108 Descending Atlanta Center
07:57PM 35.0211 -80.9903 39° Northeast 188 216 4,400 -889 Descending Atlanta Center
07:58PM 35.0450 -80.9486 55° Northeast 161 185 3,800 -744 Descending Atlanta Center
07:59PM 35.0889 -80.9444 North 156 180 2,900 -793 Descending Atlanta Center
08:00PM 35.1286 -80.9456 359° North 133 153 2,200 -724 Descending Atlanta Center
08:01PM 35.1600 -80.9519 351° North 126 145 1,500 -764 Descending Atlanta Center

Login

Don't have an account? Register now (free) for customized features, flight alerts, and more!